sensor_id;sensor_type;location;lat;lon;timestamp;pressure;altitude;pressure_sealevel;temperature;humidity
18987;BME280;9627;59.236;18.142;2022-09-02T00:00:28;102021.72;;;9.88;100.00
18987;BME280;9627;59.236;18.142;2022-09-02T00:02:56;102031.56;;;9.96;100.00
18987;BME280;9627;59.236;18.142;2022-09-02T00:05:23;102026.28;;;9.96;100.00
18987;BME280;9627;59.236;18.142;2022-09-02T00:07:50;102033.09;;;9.98;100.00
18987;BME280;9627;59.236;18.142;2022-09-02T00:10:17;102025.75;;;9.92;100.00
18987;BME280;9627;59.236;18.142;2022-09-02T00:12:44;102025.47;;;9.86;100.00
18987;BME280;9627;59.236;18.142;2022-09-02T00:15:12;102023.13;;;9.83;100.00
18987;BME280;9627;59.236;18.142;2022-09-02T00:17:40;102024.41;;;9.79;100.00
18987;BME280;9627;59.236;18.142;2022-09-02T00:20:08;102020.22;;;9.76;100.00
18987;BME280;9627;59.236;18.142;2022-09-02T00:22:35;102023.72;;;9.77;100.00
18987;BME280;9627;59.236;18.142;2022-09-02T00:25:02;102019.41;;;9.76;100.00
18987;BME280;9627;59.236;18.142;2022-09-02T00:27:29;102023.34;;;9.72;100.00
18987;BME280;9627;59.236;18.142;2022-09-02T00:29:56;102022.34;;;9.73;100.00
18987;BME280;9627;59.236;18.142;2022-09-02T00:32:23;102018.25;;;9.61;100.00
18987;BME280;9627;59.236;18.142;2022-09-02T00:34:52;102026.66;;;9.47;100.00
18987;BME280;9627;59.236;18.142;2022-09-02T00:37:22;102027.13;;;9.32;100.00
18987;BME280;9627;59.236;18.142;2022-09-02T00:39:49;102033.75;;;9.19;100.00
18987;BME280;9627;59.236;18.142;2022-09-02T00:42:17;102030.81;;;9.12;100.00
18987;BME280;9627;59.236;18.142;2022-09-02T00:44:44;102022.91;;;9.03;100.00
18987;BME280;9627;59.236;18.142;2022-09-02T00:47:11;102025.97;;;8.98;100.00
18987;BME280;9627;59.236;18.142;2022-09-02T00:49:40;102025.41;;;9.04;100.00
18987;BME280;9627;59.236;18.142;2022-09-02T00:52:12;102028.59;;;9.08;100.00
18987;BME280;9627;59.236;18.142;2022-09-02T00:54:44;102025.94;;;9.08;100.00
18987;BME280;9627;59.236;18.142;2022-09-02T00:57:13;102024.69;;;9.12;100.00
18987;BME280;9627;59.236;18.142;2022-09-02T00:59:45;102025.94;;;9.08;100.00
18987;BME280;9627;59.236;18.142;2022-09-02T01:02:14;102026.78;;;9.08;100.00
18987;BME280;9627;59.236;18.142;2022-09-02T01:04:41;102027.78;;;9.07;100.00
18987;BME280;9627;59.236;18.142;2022-09-02T01:07:12;102024.69;;;9.02;100.00
18987;BME280;9627;59.236;18.142;2022-09-02T01:09:40;102026.50;;;9.02;100.00
18987;BME280;9627;59.236;18.142;2022-09-02T01:12:07;102024.44;;;8.96;100.00
18987;BME280;9627;59.236;18.142;2022-09-02T01:14:36;102030.00;;;8.93;100.00
18987;BME280;9627;59.236;18.142;2022-09-02T01:17:03;102040.19;;;8.97;100.00
18987;BME280;9627;59.236;18.142;2022-09-02T01:19:31;102037.41;;;8.89;100.00
18987;BME280;9627;59.236;18.142;2022-09-02T01:22:00;102021.81;;;8.86;100.00
18987;BME280;9627;59.236;18.142;2022-09-02T01:24:28;102029.09;;;8.75;100.00
18987;BME280;9627;59.236;18.142;2022-09-02T01:26:56;102038.00;;;8.64;100.00
18987;BME280;9627;59.236;18.142;2022-09-02T01:29:24;102033.94;;;8.60;100.00
18987;BME280;9627;59.236;18.142;2022-09-02T01:31:51;102040.94;;;8.61;100.00
18987;BME280;9627;59.236;18.142;2022-09-02T01:34:18;102031.44;;;8.68;100.00
18987;BME280;9627;59.236;18.142;2022-09-02T01:36:46;102041.63;;;8.63;100.00
18987;BME280;9627;59.236;18.142;2022-09-02T01:39:14;102033.69;;;8.63;100.00
18987;BME280;9627;59.236;18.142;2022-09-02T01:41:41;102040.38;;;8.58;100.00
18987;BME280;9627;59.236;18.142;2022-09-02T01:44:08;102043.97;;;8.47;100.00
18987;BME280;9627;59.236;18.142;2022-09-02T01:46:36;102046.78;;;8.46;100.00
18987;BME280;9627;59.236;18.142;2022-09-02T01:49:03;102046.78;;;8.55;100.00
18987;BME280;9627;59.236;18.142;2022-09-02T01:51:30;102048.31;;;8.58;100.00
18987;BME280;9627;59.236;18.142;2022-09-02T01:53:58;102051.38;;;8.53;100.00
18987;BME280;9627;59.236;18.142;2022-09-02T01:56:26;102051.22;;;8.45;100.00
18987;BME280;9627;59.236;18.142;2022-09-02T01:58:53;102050.25;;;8.36;100.00
18987;BME280;9627;59.236;18.142;2022-09-02T02:01:20;102051.06;;;8.37;100.00
18987;BME280;9627;59.236;18.142;2022-09-02T02:03:48;102042.56;;;8.33;100.00
18987;BME280;9627;59.236;18.142;2022-09-02T02:06:15;102043.97;;;8.28;100.00
18987;BME280;9627;59.236;18.142;2022-09-02T02:08:42;102042.31;;;8.27;100.00
18987;BME280;9627;59.236;18.142;2022-09-02T02:11:10;102045.19;;;8.24;100.00
18987;BME280;9627;59.236;18.142;2022-09-02T02:13:39;102049.69;;;8.33;100.00
18987;BME280;9627;59.236;18.142;2022-09-02T02:16:06;102063.47;;;8.36;100.00
18987;BME280;9627;59.236;18.142;2022-09-02T02:18:33;102055.25;;;8.39;100.00
18987;BME280;9627;59.236;18.142;2022-09-02T02:20:59;102047.75;;;8.35;100.00
18987;BME280;9627;59.236;18.142;2022-09-02T02:23:26;102055.41;;;8.38;100.00
18987;BME280;9627;59.236;18.142;2022-09-02T02:25:53;102059.28;;;8.34;100.00
18987;BME280;9627;59.236;18.142;2022-09-02T02:28:21;102055.69;;;8.35;100.00
18987;BME280;9627;59.236;18.142;2022-09-02T02:30:49;102060.41;;;8.41;100.00
18987;BME280;9627;59.236;18.142;2022-09-02T02:33:16;102053.72;;;8.56;100.00
18987;BME280;9627;59.236;18.142;2022-09-02T02:35:43;102051.66;;;8.60;100.00
18987;BME280;9627;59.236;18.142;2022-09-02T02:38:11;102062.50;;;8.66;100.00
18987;BME280;9627;59.236;18.142;2022-09-02T02:40:38;102061.13;;;8.72;100.00
18987;BME280;9627;59.236;18.142;2022-09-02T02:43:05;102061.41;;;8.78;100.00
18987;BME280;9627;59.236;18.142;2022-09-02T02:45:32;102060.41;;;8.89;100.00
18987;BME280;9627;59.236;18.142;2022-09-02T02:48:00;102062.50;;;8.95;100.00
18987;BME280;9627;59.236;18.142;2022-09-02T02:50:27;102066.94;;;8.94;100.00
18987;BME280;9627;59.236;18.142;2022-09-02T02:52:54;102061.22;;;8.99;100.00
18987;BME280;9627;59.236;18.142;2022-09-02T02:55:22;102071.53;;;8.92;100.00
18987;BME280;9627;59.236;18.142;2022-09-02T02:57:50;102075.75;;;8.85;100.00
18987;BME280;9627;59.236;18.142;2022-09-02T03:00:18;102078.53;;;8.74;100.00
18987;BME280;9627;59.236;18.142;2022-09-02T03:02:45;102081.34;;;8.63;100.00
18987;BME280;9627;59.236;18.142;2022-09-02T03:05:15;102077.00;;;8.53;100.00
18987;BME280;9627;59.236;18.142;2022-09-02T03:07:42;102081.19;;;8.55;100.00
18987;BME280;9627;59.236;18.142;2022-09-02T03:10:09;102076.97;;;8.43;100.00
18987;BME280;9627;59.236;18.142;2022-09-02T03:12:37;102078.81;;;8.43;100.00
18987;BME280;9627;59.236;18.142;2022-09-02T03:15:05;102076.56;;;8.38;100.00
18987;BME280;9627;59.236;18.142;2022-09-02T03:17:32;102076.41;;;8.30;100.00
18987;BME280;9627;59.236;18.142;2022-09-02T03:19:59;102078.81;;;8.33;100.00
18987;BME280;9627;59.236;18.142;2022-09-02T03:22:28;102082.00;;;8.27;100.00
18987;BME280;9627;59.236;18.142;2022-09-02T03:24:55;102091.88;;;8.25;100.00
18987;BME280;9627;59.236;18.142;2022-09-02T03:27:22;102082.50;;;8.21;100.00
18987;BME280;9627;59.236;18.142;2022-09-02T03:29:49;102081.38;;;8.14;100.00
18987;BME280;9627;59.236;18.142;2022-09-02T03:32:16;102082.75;;;8.08;100.00
18987;BME280;9627;59.236;18.142;2022-09-02T03:34:43;102078.00;;;8.02;100.00
18987;BME280;9627;59.236;18.142;2022-09-02T03:37:10;102076.47;;;8.00;100.00
18987;BME280;9627;59.236;18.142;2022-09-02T03:39:38;102073.53;;;8.03;100.00
18987;BME280;9627;59.236;18.142;2022-09-02T03:42:05;102078.97;;;8.01;100.00
18987;BME280;9627;59.236;18.142;2022-09-02T03:44:33;102078.97;;;8.01;100.00
18987;BME280;9627;59.236;18.142;2022-09-02T03:47:00;102083.81;;;7.96;100.00
18987;BME280;9627;59.236;18.142;2022-09-02T03:49:27;102083.81;;;7.96;100.00
18987;BME280;9627;59.236;18.142;2022-09-02T03:51:54;102077.56;;;7.97;100.00
18987;BME280;9627;59.236;18.142;2022-09-02T03:54:21;102077.28;;;7.91;100.00
18987;BME280;9627;59.236;18.142;2022-09-02T03:56:50;102080.16;;;7.88;100.00
18987;BME280;9627;59.236;18.142;2022-09-02T03:59:17;102088.09;;;7.88;100.00
18987;BME280;9627;59.236;18.142;2022-09-02T04:01:44;102085.44;;;7.88;100.00
18987;BME280;9627;59.236;18.142;2022-09-02T04:04:12;102089.78;;;7.89;100.00
18987;BME280;9627;59.236;18.142;2022-09-02T04:06:39;102086.59;;;7.85;100.00
18987;BME280;9627;59.236;18.142;2022-09-02T04:09:06;102091.06;;;7.94;100.00
18987;BME280;9627;59.236;18.142;2022-09-02T04:11:33;102088.88;;;8.18;100.00
18987;BME280;9627;59.236;18.142;2022-09-02T04:14:03;102091.50;;;8.77;100.00
18987;BME280;9627;59.236;18.142;2022-09-02T04:16:30;102091.50;;;9.52;100.00
18987;BME280;9627;59.236;18.142;2022-09-02T04:18:57;102094.97;;;10.26;100.00
18987;BME280;9627;59.236;18.142;2022-09-02T04:21:25;102107.97;;;10.99;100.00
18987;BME280;9627;59.236;18.142;2022-09-02T04:23:52;102103.09;;;11.64;100.00
18987;BME280;9627;59.236;18.142;2022-09-02T04:26:20;102092.09;;;12.18;100.00
18987;BME280;9627;59.236;18.142;2022-09-02T04:28:47;102100.81;;;12.60;100.00
18987;BME280;9627;59.236;18.142;2022-09-02T04:31:17;102094.22;;;13.04;100.00
18987;BME280;9627;59.236;18.142;2022-09-02T04:33:45;102096.22;;;13.27;100.00
18987;BME280;9627;59.236;18.142;2022-09-02T04:36:14;102095.31;;;13.50;100.00
18987;BME280;9627;59.236;18.142;2022-09-02T04:38:41;102095.75;;;13.78;100.00
18987;BME280;9627;59.236;18.142;2022-09-02T04:41:08;102100.16;;;14.40;100.00
18987;BME280;9627;59.236;18.142;2022-09-02T04:43:36;102105.84;;;14.91;100.00
18987;BME280;9627;59.236;18.142;2022-09-02T04:46:03;102107.38;;;15.45;100.00
18987;BME280;9627;59.236;18.142;2022-09-02T04:48:32;102102.06;;;15.37;100.00
18987;BME280;9627;59.236;18.142;2022-09-02T04:51:02;102107.50;;;15.95;100.00
18987;BME280;9627;59.236;18.142;2022-09-02T04:53:29;102101.03;;;16.40;100.00
18987;BME280;9627;59.236;18.142;2022-09-02T04:55:57;102100.13;;;16.68;100.00
18987;BME280;9627;59.236;18.142;2022-09-02T04:58:24;102106.56;;;16.95;100.00
18987;BME280;9627;59.236;18.142;2022-09-02T05:00:51;102095.19;;;17.14;100.00
18987;BME280;9627;59.236;18.142;2022-09-02T05:03:18;102103.72;;;17.18;100.00
18987;BME280;9627;59.236;18.142;2022-09-02T05:05:56;102103.09;;;17.22;100.00
18987;BME280;9627;59.236;18.142;2022-09-02T05:08:23;102106.13;;;17.68;100.00
18987;BME280;9627;59.236;18.142;2022-09-02T05:10:50;102105.19;;;17.82;100.00
18987;BME280;9627;59.236;18.142;2022-09-02T05:13:17;102108.97;;;17.94;100.00
18987;BME280;9627;59.236;18.142;2022-09-02T05:15:44;102107.59;;;18.05;100.00
18987;BME280;9627;59.236;18.142;2022-09-02T05:18:12;102103.69;;;18.07;100.00
18987;BME280;9627;59.236;18.142;2022-09-02T05:20:38;102101.72;;;17.88;100.00
18987;BME280;9627;59.236;18.142;2022-09-02T05:23:09;102102.03;;;18.13;100.00
18987;BME280;9627;59.236;18.142;2022-09-02T05:25:37;102099.78;;;18.16;100.00
18987;BME280;9627;59.236;18.142;2022-09-02T05:28:04;102107.84;;;18.16;100.00
18987;BME280;9627;59.236;18.142;2022-09-02T05:30:33;102113.25;;;19.29;100.00
18987;BME280;9627;59.236;18.142;2022-09-02T05:33:00;102103.91;;;19.18;100.00
18987;BME280;9627;59.236;18.142;2022-09-02T05:35:26;102102.50;;;19.49;100.00
18987;BME280;9627;59.236;18.142;2022-09-02T05:37:53;102101.94;;;19.97;100.00
18987;BME280;9627;59.236;18.142;2022-09-02T05:40:22;102101.25;;;20.21;100.00
18987;BME280;9627;59.236;18.142;2022-09-02T05:42:49;102102.25;;;20.33;100.00
18987;BME280;9627;59.236;18.142;2022-09-02T05:45:16;102100.00;;;20.17;100.00
18987;BME280;9627;59.236;18.142;2022-09-02T05:47:43;102104.69;;;20.42;100.00
18987;BME280;9627;59.236;18.142;2022-09-02T05:50:10;102102.34;;;20.07;100.00
18987;BME280;9627;59.236;18.142;2022-09-02T05:52:39;102106.34;;;20.43;100.00
18987;BME280;9627;59.236;18.142;2022-09-02T05:55:06;102110.09;;;20.42;100.00
18987;BME280;9627;59.236;18.142;2022-09-02T05:57:35;102116.19;;;20.24;100.00
18987;BME280;9627;59.236;18.142;2022-09-02T06:00:03;102113.28;;;21.01;100.00
18987;BME280;9627;59.236;18.142;2022-09-02T06:02:31;102107.81;;;21.07;100.00
18987;BME280;9627;59.236;18.142;2022-09-02T06:04:57;102113.72;;;20.60;100.00
18987;BME280;9627;59.236;18.142;2022-09-02T06:07:25;102107.78;;;21.32;100.00
18987;BME280;9627;59.236;18.142;2022-09-02T06:09:52;102106.50;;;22.32;100.00
18987;BME280;9627;59.236;18.142;2022-09-02T06:12:19;102106.22;;;22.22;100.00
18987;BME280;9627;59.236;18.142;2022-09-02T06:14:49;102106.75;;;22.12;100.00
18987;BME280;9627;59.236;18.142;2022-09-02T06:17:15;102100.81;;;22.22;100.00
18987;BME280;9627;59.236;18.142;2022-09-02T06:19:42;102090.47;;;22.00;100.00
18987;BME280;9627;59.236;18.142;2022-09-02T06:22:09;102094.16;;;22.36;100.00
18987;BME280;9627;59.236;18.142;2022-09-02T06:24:36;102098.84;;;22.29;100.00
18987;BME280;9627;59.236;18.142;2022-09-02T06:27:04;102093.81;;;22.62;100.00
18987;BME280;9627;59.236;18.142;2022-09-02T06:29:31;102096.44;;;22.68;100.00
18987;BME280;9627;59.236;18.142;2022-09-02T06:31:59;102094.78;;;23.66;100.00
18987;BME280;9627;59.236;18.142;2022-09-02T06:34:26;102100.53;;;23.24;100.00
18987;BME280;9627;59.236;18.142;2022-09-02T06:36:53;102094.78;;;23.66;100.00
18987;BME280;9627;59.236;18.142;2022-09-02T06:39:22;102096.44;;;23.56;100.00
18987;BME280;9627;59.236;18.142;2022-09-02T06:41:50;102100.00;;;23.56;100.00
18987;BME280;9627;59.236;18.142;2022-09-02T06:44:17;102102.53;;;23.28;100.00
18987;BME280;9627;59.236;18.142;2022-09-02T06:46:46;102098.22;;;23.62;100.00
18987;BME280;9627;59.236;18.142;2022-09-02T06:49:15;102101.09;;;23.83;100.00
18987;BME280;9627;59.236;18.142;2022-09-02T06:51:43;102099.72;;;23.23;100.00
18987;BME280;9627;59.236;18.142;2022-09-02T06:54:12;102095.84;;;23.77;100.00
18987;BME280;9627;59.236;18.142;2022-09-02T06:56:39;102099.97;;;23.68;100.00
18987;BME280;9627;59.236;18.142;2022-09-02T06:59:06;102107.19;;;23.39;100.00
18987;BME280;9627;59.236;18.142;2022-09-02T07:01:34;102096.44;;;23.67;100.00
18987;BME280;9627;59.236;18.142;2022-09-02T07:04:01;102099.34;;;24.40;100.00
18987;BME280;9627;59.236;18.142;2022-09-02T07:06:48;102094.25;;;24.16;100.00
18987;BME280;9627;59.236;18.142;2022-09-02T07:09:17;102092.00;;;24.01;100.00
18987;BME280;9627;59.236;18.142;2022-09-02T07:11:45;102088.44;;;24.12;100.00
18987;BME280;9627;59.236;18.142;2022-09-02T07:14:13;102096.16;;;24.04;100.00
18987;BME280;9627;59.236;18.142;2022-09-02T07:16:41;102092.59;;;24.15;90.61
18987;BME280;9627;59.236;18.142;2022-09-02T07:19:09;102090.91;;;24.70;89.75
18987;BME280;9627;59.236;18.142;2022-09-02T07:21:36;102091.81;;;24.59;83.48
18987;BME280;9627;59.236;18.142;2022-09-02T07:24:07;102091.13;;;23.49;86.19
18987;BME280;9627;59.236;18.142;2022-09-02T07:26:34;102100.09;;;24.52;100.00
18987;BME280;9627;59.236;18.142;2022-09-02T07:29:02;102091.97;;;24.97;89.93
18987;BME280;9627;59.236;18.142;2022-09-02T07:31:32;102090.88;;;24.98;93.86
18987;BME280;9627;59.236;18.142;2022-09-02T07:34:00;102099.84;;;24.99;92.12
18987;BME280;9627;59.236;18.142;2022-09-02T07:36:27;102097.53;;;24.91;91.42
18987;BME280;9627;59.236;18.142;2022-09-02T07:38:54;102090.31;;;24.79;83.23
18987;BME280;9627;59.236;18.142;2022-09-02T07:41:23;102097.22;;;24.87;88.97
18987;BME280;9627;59.236;18.142;2022-09-02T07:43:50;102095.47;;;25.47;86.61
18987;BME280;9627;59.236;18.142;2022-09-02T07:46:17;102097.06;;;26.03;82.19
18987;BME280;9627;59.236;18.142;2022-09-02T07:48:45;102102.00;;;25.85;79.67
18987;BME280;9627;59.236;18.142;2022-09-02T07:51:14;102108.66;;;25.55;77.08
18987;BME280;9627;59.236;18.142;2022-09-02T07:53:42;102104.22;;;24.27;81.39
18987;BME280;9627;59.236;18.142;2022-09-02T07:56:10;102109.16;;;25.19;79.86
18987;BME280;9627;59.236;18.142;2022-09-02T07:58:39;102105.19;;;25.60;82.06
18987;BME280;9627;59.236;18.142;2022-09-02T08:01:07;102113.88;;;25.40;75.38
18987;BME280;9627;59.236;18.142;2022-09-02T08:03:34;102114.03;;;25.34;80.76
18987;BME280;9627;59.236;18.142;2022-09-02T08:06:00;102113.13;;;24.39;88.58
18987;BME280;9627;59.236;18.142;2022-09-02T08:08:27;102111.22;;;25.84;81.62
18987;BME280;9627;59.236;18.142;2022-09-02T08:10:54;102112.66;;;26.08;74.59
18987;BME280;9627;59.236;18.142;2022-09-02T08:13:22;102116.06;;;25.27;92.72
18987;BME280;9627;59.236;18.142;2022-09-02T08:15:51;102106.56;;;26.71;82.89
18987;BME280;9627;59.236;18.142;2022-09-02T08:18:18;102107.50;;;24.57;90.32
18987;BME280;9627;59.236;18.142;2022-09-02T08:20:45;102108.16;;;24.92;81.81
18987;BME280;9627;59.236;18.142;2022-09-02T08:23:12;102110.53;;;23.92;90.72
18987;BME280;9627;59.236;18.142;2022-09-02T08:25:40;102113.56;;;22.33;100.00
18987;BME280;9627;59.236;18.142;2022-09-02T08:28:07;102125.13;;;20.56;100.00
18987;BME280;9627;59.236;18.142;2022-09-02T08:30:34;102120.88;;;18.80;100.00
18987;BME280;9627;59.236;18.142;2022-09-02T08:33:03;102122.97;;;18.24;100.00
18987;BME280;9627;59.236;18.142;2022-09-02T08:35:30;102125.44;;;17.50;100.00
18987;BME280;9627;59.236;18.142;2022-09-02T08:37:57;102114.09;;;20.26;100.00
18987;BME280;9627;59.236;18.142;2022-09-02T08:40:27;102116.13;;;22.28;100.00
18987;BME280;9627;59.236;18.142;2022-09-02T08:42:58;102116.44;;;22.67;100.00
18987;BME280;9627;59.236;18.142;2022-09-02T08:45:27;102119.25;;;20.72;100.00
18987;BME280;9627;59.236;18.142;2022-09-02T08:47:58;102109.47;;;21.94;100.00
18987;BME280;9627;59.236;18.142;2022-09-02T08:50:30;102105.06;;;23.41;100.00
18987;BME280;9627;59.236;18.142;2022-09-02T08:52:59;102107.53;;;22.90;100.00
18987;BME280;9627;59.236;18.142;2022-09-02T08:55:35;102107.00;;;23.11;100.00
18987;BME280;9627;59.236;18.142;2022-09-02T08:58:04;102100.44;;;23.76;100.00
18987;BME280;9627;59.236;18.142;2022-09-02T09:00:36;102104.38;;;19.35;100.00
18987;BME280;9627;59.236;18.142;2022-09-02T09:03:09;102107.88;;;19.03;100.00
18987;BME280;9627;59.236;18.142;2022-09-02T09:05:41;102106.97;;;22.29;100.00
18987;BME280;9627;59.236;18.142;2022-09-02T09:08:13;102102.03;;;21.89;98.12
18987;BME280;9627;59.236;18.142;2022-09-02T09:10:46;102088.50;;;21.89;100.00
18987;BME280;9627;59.236;18.142;2022-09-02T09:13:35;102094.97;;;23.88;96.95
18987;BME280;9627;59.236;18.142;2022-09-02T09:16:08;102096.50;;;24.92;86.92
18987;BME280;9627;59.236;18.142;2022-09-02T09:18:39;102098.63;;;23.93;92.89
18987;BME280;9627;59.236;18.142;2022-09-02T09:21:08;102100.88;;;23.04;100.00
18987;BME280;9627;59.236;18.142;2022-09-02T09:23:37;102095.69;;;23.83;85.58
18987;BME280;9627;59.236;18.142;2022-09-02T09:26:06;102095.31;;;21.56;81.49
18987;BME280;9627;59.236;18.142;2022-09-02T09:28:37;102100.00;;;19.21;100.00
18987;BME280;9627;59.236;18.142;2022-09-02T09:31:08;102098.53;;;18.92;100.00
18987;BME280;9627;59.236;18.142;2022-09-02T09:33:36;102095.66;;;19.46;100.00
18987;BME280;9627;59.236;18.142;2022-09-02T09:36:03;102089.16;;;17.95;100.00
18987;BME280;9627;59.236;18.142;2022-09-02T09:38:32;102091.50;;;19.63;100.00
18987;BME280;9627;59.236;18.142;2022-09-02T09:41:10;102090.06;;;20.18;100.00
18987;BME280;9627;59.236;18.142;2022-09-02T09:43:38;102102.88;;;19.65;100.00
18987;BME280;9627;59.236;18.142;2022-09-02T09:46:19;102090.25;;;19.59;100.00
18987;BME280;9627;59.236;18.142;2022-09-02T09:48:47;102098.97;;;19.02;100.00
18987;BME280;9627;59.236;18.142;2022-09-02T09:51:15;102101.25;;;18.25;100.00
18987;BME280;9627;59.236;18.142;2022-09-02T09:53:44;102101.19;;;17.65;100.00
18987;BME280;9627;59.236;18.142;2022-09-02T09:56:24;102100.41;;;18.72;100.00
18987;BME280;9627;59.236;18.142;2022-09-02T09:58:52;102099.84;;;20.57;100.00
18987;BME280;9627;59.236;18.142;2022-09-02T10:01:20;102099.47;;;21.34;100.00
18987;BME280;9627;59.236;18.142;2022-09-02T10:03:49;102094.94;;;22.54;100.00
18987;BME280;9627;59.236;18.142;2022-09-02T10:06:19;102084.69;;;22.45;98.92
18987;BME280;9627;59.236;18.142;2022-09-02T10:08:52;102092.63;;;23.80;93.73
18987;BME280;9627;59.236;18.142;2022-09-02T10:11:21;102092.09;;;22.79;94.33
18987;BME280;9627;59.236;18.142;2022-09-02T10:13:48;102107.25;;;18.94;100.00
18987;BME280;9627;59.236;18.142;2022-09-02T10:16:19;102110.78;;;17.25;100.00
18987;BME280;9627;59.236;18.142;2022-09-02T10:18:52;102115.66;;;14.98;100.00
18987;BME280;9627;59.236;18.142;2022-09-02T10:21:23;102109.84;;;14.03;100.00
18987;BME280;9627;59.236;18.142;2022-09-02T10:23:54;102115.56;;;14.30;100.00
18987;BME280;9627;59.236;18.142;2022-09-02T10:26:30;102124.78;;;14.58;100.00
18987;BME280;9627;59.236;18.142;2022-09-02T10:29:25;102124.97;;;14.18;100.00
18987;BME280;9627;59.236;18.142;2022-09-02T10:32:02;102133.72;;;14.43;100.00
18987;BME280;9627;59.236;18.142;2022-09-02T10:34:36;102133.00;;;14.79;100.00
18987;BME280;9627;59.236;18.142;2022-09-02T10:37:10;102142.63;;;14.35;100.00
18987;BME280;9627;59.236;18.142;2022-09-02T10:39:48;102135.13;;;14.23;100.00
18987;BME280;9627;59.236;18.142;2022-09-02T10:42:21;102139.88;;;14.43;100.00
18987;BME280;9627;59.236;18.142;2022-09-02T10:44:55;102145.44;;;14.64;100.00
18987;BME280;9627;59.236;18.142;2022-09-02T10:47:27;102137.09;;;14.67;100.00
18987;BME280;9627;59.236;18.142;2022-09-02T10:50:00;102137.13;;;14.29;100.00
18987;BME280;9627;59.236;18.142;2022-09-02T10:52:37;102136.34;;;14.12;100.00
18987;BME280;9627;59.236;18.142;2022-09-02T10:55:11;102131.34;;;14.09;100.00
18987;BME280;9627;59.236;18.142;2022-09-02T10:57:44;102134.97;;;14.55;100.00
18987;BME280;9627;59.236;18.142;2022-09-02T11:00:13;102135.63;;;15.47;100.00
18987;BME280;9627;59.236;18.142;2022-09-02T11:02:41;102135.56;;;15.70;100.00
18987;BME280;9627;59.236;18.142;2022-09-02T11:05:11;102141.78;;;15.11;100.00
18987;BME280;9627;59.236;18.142;2022-09-02T11:07:41;102134.50;;;16.58;100.00
18987;BME280;9627;59.236;18.142;2022-09-02T11:10:14;102134.81;;;15.39;100.00
18987;BME280;9627;59.236;18.142;2022-09-02T11:12:44;102129.91;;;17.16;100.00
18987;BME280;9627;59.236;18.142;2022-09-02T11:15:14;102135.59;;;16.49;100.00
18987;BME280;9627;59.236;18.142;2022-09-02T11:17:43;102140.78;;;17.35;100.00
18987;BME280;9627;59.236;18.142;2022-09-02T11:20:15;102123.66;;;17.57;100.00
18987;BME280;9627;59.236;18.142;2022-09-02T11:22:49;102123.78;;;16.80;100.00
18987;BME280;9627;59.236;18.142;2022-09-02T11:25:22;102120.47;;;16.27;100.00
18987;BME280;9627;59.236;18.142;2022-09-02T11:27:53;102127.22;;;16.23;100.00
18987;BME280;9627;59.236;18.142;2022-09-02T11:30:26;102123.41;;;16.47;100.00
18987;BME280;9627;59.236;18.142;2022-09-02T11:32:57;102127.63;;;17.68;100.00
18987;BME280;9627;59.236;18.142;2022-09-02T11:35:30;102123.03;;;17.96;100.00
18987;BME280;9627;59.236;18.142;2022-09-02T11:38:01;102127.28;;;18.25;100.00
18987;BME280;9627;59.236;18.142;2022-09-02T11:40:31;102125.44;;;18.86;100.00
18987;BME280;9627;59.236;18.142;2022-09-02T11:43:03;102126.72;;;19.03;100.00
18987;BME280;9627;59.236;18.142;2022-09-02T11:45:43;102123.00;;;17.55;100.00
18987;BME280;9627;59.236;18.142;2022-09-02T11:48:18;102132.06;;;17.06;100.00
18987;BME280;9627;59.236;18.142;2022-09-02T11:50:59;102128.69;;;16.97;100.00
18987;BME280;9627;59.236;18.142;2022-09-02T11:53:29;102120.25;;;17.00;100.00
18987;BME280;9627;59.236;18.142;2022-09-02T11:56:00;102132.09;;;17.12;100.00
18987;BME280;9627;59.236;18.142;2022-09-02T11:58:33;102121.38;;;17.95;100.00
18987;BME280;9627;59.236;18.142;2022-09-02T12:01:05;102124.03;;;18.29;100.00
18987;BME280;9627;59.236;18.142;2022-09-02T12:03:32;102125.00;;;18.63;100.00
18987;BME280;9627;59.236;18.142;2022-09-02T12:06:06;102127.94;;;18.27;100.00
18987;BME280;9627;59.236;18.142;2022-09-02T12:17:02;102139.53;;;15.59;100.00
18987;BME280;9627;59.236;18.142;2022-09-02T12:19:39;102137.84;;;15.21;100.00
18987;BME280;9627;59.236;18.142;2022-09-02T12:22:26;102130.31;;;15.39;100.00
18987;BME280;9627;59.236;18.142;2022-09-02T12:24:57;102139.59;;;14.92;100.00
18987;BME280;9627;59.236;18.142;2022-09-02T12:27:25;102131.56;;;15.51;100.00
18987;BME280;9627;59.236;18.142;2022-09-02T12:29:52;102142.47;;;15.05;100.00
18987;BME280;9627;59.236;18.142;2022-09-02T12:35:08;102128.88;;;14.92;100.00
18987;BME280;9627;59.236;18.142;2022-09-02T12:37:50;102128.31;;;15.41;100.00
18987;BME280;9627;59.236;18.142;2022-09-02T12:40:22;102121.19;;;15.71;100.00
18987;BME280;9627;59.236;18.142;2022-09-02T12:42:50;102126.78;;;15.91;100.00
18987;BME280;9627;59.236;18.142;2022-09-02T12:45:22;102123.19;;;16.13;100.00
18987;BME280;9627;59.236;18.142;2022-09-02T12:47:52;102122.53;;;15.82;100.00
18987;BME280;9627;59.236;18.142;2022-09-02T12:50:26;102125.31;;;14.76;100.00
18987;BME280;9627;59.236;18.142;2022-09-02T12:55:41;102126.63;;;14.80;100.00
18987;BME280;9627;59.236;18.142;2022-09-02T12:58:19;102131.94;;;14.66;100.00
18987;BME280;9627;59.236;18.142;2022-09-02T13:00:51;102130.56;;;14.70;100.00
18987;BME280;9627;59.236;18.142;2022-09-02T13:03:26;102140.41;;;14.69;100.00
18987;BME280;9627;59.236;18.142;2022-09-02T13:05:59;102131.13;;;14.57;100.00
18987;BME280;9627;59.236;18.142;2022-09-02T13:17:01;102129.28;;;15.92;100.00